A- A+ FrançaisEnglishEspañol中国

Services sur Internet Soldes sur Internet Des idées de cadeaux Météo Météo aéro

La météo à : Autours de vous Tarbes-Lourdes-PyrénéesCreil-Senlis Persan-Beaumont Le-Plessis-Belleville

La météo aéronautique pour les pilotes, la préparation du vol avec les METAR (METeorological Aerodrome Report, message d'observation des conditions météorologiques pour l'aviation) et Les TAF (Terminal Aerodrome Forecast : message de prévision à court terme des conditions météorologiques pour l'aviation). Et les autres ressources comme les VAC (Visual Approch Chart) et les NOTAM (Notice To Airman) pour préprer les vols.

Aéroport Ech-Cheliff (Algérie) / OACI DAOI/ IATA CFK

L'altitude de l'aéroport Ech-Cheliff est de 141 m = 463 ft. Il est situé à proximité de (Algérie). La météo générale à 5 jours est disponible pour Chlef situé à 5.3 km.

METAR de l'aéroport Ech-Cheliff - DAOI

DAOI 071100Z 06004KT 010V090 CAVOK 17/07 Q1021

Décodage du METAR de l'aéroport Ech-Cheliff (DZ)

METAR émis par DAOI le samedi 7 décembre 2019 à 11:00 heure TU, il y a 12 minutes.

La visibilité est de supérieure à 10 km = supérieure à 6.2 sm.

La température est de 17°C = 63 °F et le point rosée est de 7°C = 45 °F . Ce qui correspond à 52% d'humidité relative.

Le QNH est de 1021 hPa = 30.15 inHg

Vent de 4 kt = 7 km/h, orienté à 60°.

Pas de nuages.

TAF de l'aéroport Ech-Cheliff - DAOI

DAOI 070500Z 0706/0806 VRB02KT CAVOK BECMG 0710/0712 32010KT BECMG 0714/0716 SCT030

DAOI 070500Z 0706/0806 VRB02KT visibilité supérieure à 10km, aucun nuage à une hauteur inférieure à 5000 ft ou sous l'altitude minimale de secteur et aucun cumulonimbus ou cumulus bourgeonnant, quelle que soit leur altitude devenant 0710/0712 32010KT devenant 0714/0716 nuages épars à 030

Aéroport à proximité de Ech-Cheliff

Météo générale à 5 jours à Chlef (5.3 km)Aéroport Relizane (82 km)Aéroport Tiaret (98 km)Aéroport Blida (137 km)Aéroport Boufarik (143 km)Aéroport Ghriss (155 km)Aéroport Cheraga (156 km)

Vue aérienne de l'aéroport Ech-Cheliff

NOTAM de l'aéroport Ech-Cheliff

Les NOTAM sont fournis sans aucune garantie de leur actualité. Le pilote est le seul responsable de la vérification de sa validité avant de l'utiliser opérationnellement pour préparer un vol ou l'utiliser lors de sa navigation.

Pas de NOTAM

Sources des données